createdAt,value
2023-04-14T00:00:02.918Z,99544.79
2023-04-14T00:02:43.725Z,99547.27
2023-04-14T00:05:12.118Z,99548.77
2023-04-14T00:07:40.746Z,99547.09
2023-04-14T00:10:10.073Z,99553.10
2023-04-14T00:12:38.544Z,99557.05
2023-04-14T00:15:07.136Z,99557.53
2023-04-14T00:17:37.163Z,99553.10
2023-04-14T00:20:06.059Z,99557.36
2023-04-14T00:22:34.600Z,99558.05
2023-04-14T00:25:02.443Z,99557.12
2023-04-14T00:27:31.362Z,99557.06
2023-04-14T00:29:59.746Z,99554.73
2023-04-14T00:32:27.920Z,99549.27
2023-04-14T00:34:57.031Z,99549.30
2023-04-14T00:37:25.079Z,99547.81
2023-04-14T00:39:53.291Z,99549.18
2023-04-14T00:42:21.223Z,99544.76
2023-04-14T00:44:49.245Z,99544.23
2023-04-14T00:47:17.520Z,99545.27
2023-04-14T00:49:46.145Z,99545.95
2023-04-14T00:52:14.000Z,99544.38
2023-04-14T00:54:42.021Z,99551.15
2023-04-14T00:57:10.147Z,99551.70
2023-04-14T00:59:38.041Z,99551.19
2023-04-14T01:02:08.652Z,99553.32
2023-04-14T01:04:52.228Z,99552.42
2023-04-14T01:07:23.092Z,99557.25
2023-04-14T01:09:53.115Z,99557.73
2023-04-14T01:12:55.082Z,99557.09
2023-04-14T01:15:43.288Z,99555.02
2023-04-14T01:18:44.842Z,99554.26
2023-04-14T01:21:21.141Z,99557.58
2023-04-14T01:24:06.108Z,99563.43
2023-04-14T01:26:34.851Z,99567.23
2023-04-14T01:29:06.208Z,99561.84
2023-04-14T01:31:43.454Z,99560.55
2023-04-14T01:34:21.476Z,99563.92
2023-04-14T01:36:55.572Z,99561.42
2023-04-14T01:39:33.296Z,99566.11
2023-04-14T01:42:02.302Z,99567.22
2023-04-14T01:44:30.754Z,99567.47
2023-04-14T01:47:02.509Z,99570.97
2023-04-14T01:49:32.347Z,99569.48
2023-04-14T01:52:01.803Z,99570.65
2023-04-14T01:54:31.752Z,99569.06
2023-04-14T01:57:01.892Z,99573.70
2023-04-14T01:59:31.188Z,99575.98
2023-04-14T02:02:01.764Z,99576.27
2023-04-14T02:04:30.113Z,99576.54
2023-04-14T02:06:59.566Z,99576.27
2023-04-14T02:09:28.306Z,99584.83
2023-04-14T02:11:56.448Z,99586.34
2023-04-14T02:14:24.616Z,99588.14
2023-04-14T02:16:54.015Z,99587.30
2023-04-14T02:19:22.088Z,99589.52
2023-04-14T02:21:51.048Z,99591.06
2023-04-14T02:24:19.372Z,99591.23
2023-04-14T02:27:03.464Z,99593.77
2023-04-14T02:29:32.282Z,99595.09
2023-04-14T02:32:04.007Z,99595.01
2023-04-14T02:34:55.790Z,99598.29
2023-04-14T02:37:25.828Z,99602.27
2023-04-14T02:39:56.985Z,99607.30
2023-04-14T02:42:27.148Z,99608.70
2023-04-14T02:45:07.093Z,99610.65
2023-04-14T02:47:42.115Z,99612.23
2023-04-14T02:50:12.258Z,99613.86
2023-04-14T02:52:41.098Z,99617.77
2023-04-14T02:55:11.333Z,99616.49
2023-04-14T02:57:40.840Z,99618.98
2023-04-14T03:00:10.820Z,99623.64
2023-04-14T03:02:43.330Z,99624.71
2023-04-14T03:05:11.378Z,99623.90
2023-04-14T03:07:52.519Z,99627.64
2023-04-14T03:10:22.000Z,99629.34
2023-04-14T03:12:50.831Z,99631.11
2023-04-14T03:15:19.166Z,99636.55
2023-04-14T03:17:48.858Z,99632.58
2023-04-14T03:20:20.246Z,99634.98
2023-04-14T03:23:04.969Z,99632.33
2023-04-14T03:25:37.989Z,99634.61
2023-04-14T03:28:10.620Z,99629.40
2023-04-14T03:30:41.533Z,99627.92
2023-04-14T03:33:13.083Z,99630.98
2023-04-14T03:35:41.252Z,99630.79
2023-04-14T03:38:09.239Z,99631.31
2023-04-14T03:40:40.206Z,99634.84
2023-04-14T03:43:10.082Z,99635.31
2023-04-14T03:45:40.161Z,99637.44
2023-04-14T03:48:11.859Z,99636.65
2023-04-14T03:50:46.495Z,99643.48
2023-04-14T03:53:15.098Z,99648.47
2023-04-14T03:55:44.007Z,99650.45
2023-04-14T03:58:13.732Z,99650.70
2023-04-14T04:00:42.142Z,99651.34
2023-04-14T04:03:10.827Z,99655.52
2023-04-14T04:05:42.131Z,99658.77
2023-04-14T04:08:10.279Z,99659.27
2023-04-14T04:10:38.305Z,99661.97
2023-04-14T04:13:09.406Z,99662.15
2023-04-14T04:15:41.150Z,99664.23
2023-04-14T04:18:10.154Z,99669.11
2023-04-14T04:20:39.668Z,99668.19
2023-04-14T04:23:09.188Z,99671.57
2023-04-14T04:25:37.763Z,99676.48
2023-04-14T04:28:25.889Z,99676.36
2023-04-14T04:30:54.268Z,99682.86
2023-04-14T04:33:22.999Z,99680.79
2023-04-14T04:35:51.555Z,99683.02
2023-04-14T04:38:20.938Z,99685.67
2023-04-14T04:40:48.925Z,99684.99
2023-04-14T04:43:23.655Z,99688.67
2023-04-14T04:46:13.078Z,99692.20
2023-04-14T04:48:41.195Z,99694.91
2023-04-14T04:51:10.164Z,99697.17
2023-04-14T04:53:38.022Z,99704.00
2023-04-14T04:56:08.457Z,99706.94
2023-04-14T04:58:37.631Z,99709.48
2023-04-14T05:01:11.237Z,99711.60
2023-04-14T05:03:41.046Z,99718.70
2023-04-14T05:06:08.872Z,99719.92
2023-04-14T05:08:36.759Z,99719.14
2023-04-14T05:11:06.089Z,99722.90
2023-04-14T05:13:34.073Z,99723.50
2023-04-14T05:16:06.556Z,99723.60
2023-04-14T05:18:42.758Z,99725.35
2023-04-14T05:21:14.460Z,99729.35
2023-04-14T05:23:43.799Z,99733.48
2023-04-14T05:28:47.750Z,99736.42
2023-04-14T05:31:16.596Z,99740.88
2023-04-14T05:33:44.717Z,99742.38
2023-04-14T05:36:12.964Z,99742.52
2023-04-14T05:38:41.813Z,99744.10
2023-04-14T05:41:09.792Z,99744.11
2023-04-14T05:43:37.671Z,99742.62
2023-04-14T05:46:06.000Z,99741.33
2023-04-14T05:48:37.729Z,99743.59
2023-04-14T05:51:06.426Z,99745.17
2023-04-14T05:53:34.576Z,99749.16
2023-04-14T05:56:02.655Z,99750.65
2023-04-14T05:58:31.072Z,99750.94
2023-04-14T06:01:03.981Z,99752.92
2023-04-14T06:03:34.108Z,99754.09
2023-04-14T06:06:02.534Z,99754.34
2023-04-14T06:08:31.011Z,99757.49
2023-04-14T06:10:59.399Z,99759.25
2023-04-14T06:15:59.518Z,99759.98
2023-04-14T06:18:29.702Z,99762.55
2023-04-14T06:20:57.830Z,99763.13
2023-04-14T06:23:26.860Z,99766.06
2023-04-14T06:25:55.952Z,99767.11
2023-04-14T06:28:25.788Z,99771.16
2023-04-14T06:30:53.954Z,99778.83
2023-04-14T06:33:21.955Z,99781.65
2023-04-14T06:35:51.391Z,99784.34
2023-04-14T06:38:19.742Z,99785.03
2023-04-14T06:40:47.657Z,99784.81
2023-04-14T06:43:17.786Z,99789.18
2023-04-14T06:45:46.352Z,99793.27
2023-04-14T06:48:15.246Z,99789.69
2023-04-14T06:50:53.626Z,99788.67
2023-04-14T06:53:22.703Z,99785.25
2023-04-14T06:56:09.001Z,99788.17
2023-04-14T06:58:40.462Z,99793.52
2023-04-14T07:01:08.872Z,99797.61
2023-04-14T07:03:38.399Z,99800.05
2023-04-14T07:06:12.736Z,99798.82
2023-04-14T07:08:42.154Z,99804.93
2023-04-14T07:11:11.132Z,99800.24
2023-04-14T07:13:39.654Z,99804.70
2023-04-14T07:16:10.017Z,99807.20
2023-04-14T07:18:38.940Z,99805.76
2023-04-14T07:21:07.124Z,99811.73
2023-04-14T07:23:40.617Z,99813.57
2023-04-14T07:26:08.632Z,99818.77
2023-04-14T07:28:37.258Z,99819.12
2023-04-14T07:31:10.223Z,99825.05
2023-04-14T07:33:39.091Z,99821.89
2023-04-14T07:36:10.113Z,99822.23
2023-04-14T07:38:38.017Z,99821.91
2023-04-14T07:41:07.666Z,99821.73
2023-04-14T07:43:36.040Z,99819.13
2023-04-14T07:46:05.639Z,99824.24
2023-04-14T07:48:34.856Z,99821.17
2023-04-14T07:51:11.482Z,99822.98
2023-04-14T07:53:42.497Z,99823.24
2023-04-14T07:56:11.461Z,99823.48
2023-04-14T07:58:40.287Z,99829.02
2023-04-14T08:01:08.359Z,99828.00
2023-04-14T08:03:37.909Z,99833.14
2023-04-14T08:06:07.764Z,99831.55
2023-04-14T08:08:36.833Z,99835.77
2023-04-14T08:11:04.929Z,99837.17
2023-04-14T08:13:32.852Z,99837.73
2023-04-14T08:16:03.146Z,99842.59
2023-04-14T08:18:32.524Z,99841.90
2023-04-14T08:21:00.395Z,99844.11
2023-04-14T08:23:28.286Z,99840.69
2023-04-14T08:25:56.149Z,99844.98
2023-04-14T08:28:24.732Z,99838.41
2023-04-14T08:30:54.453Z,99832.75
2023-04-14T08:33:23.459Z,99827.52
2023-04-14T08:35:59.418Z,99823.16
2023-04-14T08:38:29.716Z,99821.41
2023-04-14T08:40:57.851Z,99821.40
2023-04-14T08:43:25.828Z,99821.94
2023-04-14T08:45:55.956Z,99819.58
2023-04-14T08:48:27.567Z,99818.18
2023-04-14T08:50:59.544Z,99822.11
2023-04-14T08:53:35.121Z,99824.43
2023-04-14T08:56:04.355Z,99829.59
2023-04-14T08:58:32.407Z,99831.46
2023-04-14T09:01:01.776Z,99833.29
2023-04-14T09:03:31.684Z,99841.27
2023-04-14T09:05:59.838Z,99842.89
2023-04-14T09:08:36.405Z,99844.42
2023-04-14T09:11:05.414Z,99845.55
2023-04-14T09:13:33.758Z,99853.84
2023-04-14T09:16:01.954Z,99853.96
2023-04-14T09:18:34.352Z,99856.41
2023-04-14T09:21:31.186Z,99854.13
2023-04-14T09:23:52.377Z,99853.98
2023-04-14T09:26:20.477Z,99857.29
2023-04-14T09:28:48.656Z,99863.50
2023-04-14T09:31:19.798Z,99859.86
2023-04-14T09:33:50.623Z,99859.91
2023-04-14T09:36:23.569Z,99859.19
2023-04-14T09:38:51.889Z,99859.86
2023-04-14T09:41:22.568Z,99862.63
2023-04-14T09:43:50.891Z,99865.73
2023-04-14T09:46:19.136Z,99859.71
2023-04-14T09:48:53.914Z,99860.41
2023-04-14T09:51:23.675Z,99860.95
2023-04-14T09:53:52.972Z,99858.25
2023-04-14T09:56:26.468Z,99860.75
2023-04-14T09:59:00.988Z,99862.84
2023-04-14T10:01:32.274Z,99864.98
2023-04-14T10:04:02.254Z,99867.09
2023-04-14T10:06:34.079Z,99869.68
2023-04-14T10:09:02.741Z,99876.94
2023-04-14T10:11:33.041Z,99884.67
2023-04-14T10:14:03.995Z,99886.92
2023-04-14T10:16:33.315Z,99891.02
2023-04-14T10:19:02.322Z,99889.73
2023-04-14T10:21:30.843Z,99892.91
2023-04-14T10:23:58.700Z,99891.75
2023-04-14T10:26:27.293Z,99894.05
2023-04-14T10:28:56.236Z,99892.48
2023-04-14T10:31:36.395Z,99891.22
2023-04-14T10:34:11.558Z,99890.16
2023-04-14T10:36:40.455Z,99892.54
2023-04-14T10:39:10.266Z,99892.26
2023-04-14T10:41:45.998Z,99887.34
2023-04-14T10:44:43.268Z,99888.24
2023-04-14T10:47:11.228Z,99888.55
2023-04-14T10:49:40.887Z,99892.16
2023-04-14T10:52:14.866Z,99894.95
2023-04-14T10:54:50.969Z,99896.09
2023-04-14T10:57:22.476Z,99899.33
2023-04-14T10:59:55.136Z,99899.89
2023-04-14T11:04:18.101Z,99909.84
2023-04-14T11:06:51.315Z,99912.88
2023-04-14T11:09:32.219Z,99916.86
2023-04-14T11:12:04.836Z,99918.23
2023-04-14T11:14:35.069Z,99922.66
2023-04-14T11:17:05.039Z,99925.61
2023-04-14T11:19:33.522Z,99930.04
2023-04-14T11:22:02.212Z,99930.19
2023-04-14T11:24:30.323Z,99931.64
2023-04-14T11:26:58.602Z,99927.31
2023-04-14T11:29:30.646Z,99930.86
2023-04-14T11:32:01.183Z,99930.77
2023-04-14T11:34:30.030Z,99934.18
2023-04-14T11:36:57.996Z,99936.85
2023-04-14T11:39:26.525Z,99933.53
2023-04-14T11:41:56.076Z,99934.20
2023-04-14T11:44:25.424Z,99935.88
2023-04-14T11:46:53.766Z,99934.05
2023-04-14T11:49:33.531Z,99933.71
2023-04-14T11:52:06.611Z,99932.08
2023-04-14T11:54:37.184Z,99928.44
2023-04-14T11:57:10.275Z,99929.16
2023-04-14T11:59:42.735Z,99929.60
2023-04-14T12:02:18.691Z,99929.34
2023-04-14T12:04:50.641Z,99933.52
2023-04-14T12:07:19.635Z,99931.30
2023-04-14T12:09:51.675Z,99929.85
2023-04-14T12:12:20.341Z,99932.25
2023-04-14T12:14:48.835Z,99927.80
2023-04-14T12:17:21.581Z,99924.45
2023-04-14T12:19:50.108Z,99925.80
2023-04-14T12:22:27.077Z,99924.92
2023-04-14T12:24:55.931Z,99922.08
2023-04-14T12:27:25.307Z,99920.34
2023-04-14T12:29:53.328Z,99926.77
2023-04-14T12:32:23.150Z,99925.67
2023-04-14T12:34:57.556Z,99927.20
2023-04-14T12:37:26.668Z,99925.33
2023-04-14T12:39:59.129Z,99924.62
2023-04-14T12:42:28.288Z,99924.24
2023-04-14T12:45:03.234Z,99929.78
2023-04-14T12:47:33.800Z,99929.64
2023-04-14T12:50:03.108Z,99936.60
2023-04-14T12:52:33.790Z,99938.05
2023-04-14T12:55:03.252Z,99934.27
2023-04-14T12:57:35.141Z,99935.86
2023-04-14T13:00:05.045Z,99928.58
2023-04-14T13:02:36.318Z,99930.27
2023-04-14T13:05:05.201Z,99926.45
2023-04-14T13:07:33.475Z,99925.77
2023-04-14T13:10:02.843Z,99926.04
2023-04-14T13:12:31.804Z,99931.03
2023-04-14T13:15:00.478Z,99932.61
2023-04-14T13:17:28.878Z,99936.27
2023-04-14T13:19:57.136Z,99932.21
2023-04-14T13:22:25.874Z,99931.62
2023-04-14T13:24:53.897Z,99936.77
2023-04-14T13:27:21.901Z,99935.80
2023-04-14T13:29:54.809Z,99936.59
2023-04-14T13:32:23.503Z,99943.31
2023-04-14T13:34:52.556Z,99940.81
2023-04-14T13:37:22.325Z,99944.11
2023-04-14T13:39:50.760Z,99941.52
2023-04-14T13:42:19.315Z,99939.73
2023-04-14T13:44:48.104Z,99937.41
2023-04-14T13:47:16.745Z,99941.45
2023-04-14T13:49:45.197Z,99941.48
2023-04-14T13:52:13.169Z,99937.39
2023-04-14T13:54:41.076Z,99941.65
2023-04-14T13:57:09.236Z,99941.56
2023-04-14T13:59:37.378Z,99943.79
2023-04-14T14:02:06.822Z,99945.20
2023-04-14T14:04:37.332Z,99949.48
2023-04-14T14:07:07.684Z,99941.41
2023-04-14T14:09:37.806Z,99937.80
2023-04-14T14:12:12.549Z,99939.41
2023-04-14T14:14:41.812Z,99943.98
2023-04-14T14:17:10.332Z,99949.91
2023-04-14T14:19:40.174Z,99951.80
2023-04-14T14:22:09.389Z,99952.70
2023-04-14T14:24:40.556Z,99954.22
2023-04-14T14:27:10.699Z,99956.32
2023-04-14T14:29:39.290Z,99959.10
2023-04-14T14:32:08.433Z,99961.63
2023-04-14T14:34:39.098Z,99967.14
2023-04-14T14:37:07.229Z,99970.76
2023-04-14T14:39:42.087Z,99978.77
2023-04-14T14:42:10.746Z,99981.91
2023-04-14T14:44:38.602Z,99984.45
2023-04-14T14:47:07.234Z,99982.88
2023-04-14T14:49:37.761Z,99985.03
2023-04-14T14:52:09.058Z,99989.84
2023-04-14T14:54:36.982Z,99995.89
2023-04-14T14:57:05.226Z,99999.03
2023-04-14T14:59:33.132Z,100003.19
2023-04-14T15:02:01.721Z,100004.55
2023-04-14T15:04:30.672Z,100006.61
2023-04-14T15:06:58.775Z,100005.85
2023-04-14T15:09:26.949Z,100007.17
2023-04-14T15:11:55.344Z,100008.27
2023-04-14T15:14:24.150Z,100010.27
2023-04-14T15:16:52.831Z,100013.81
2023-04-14T15:19:21.323Z,100013.08
2023-04-14T15:21:49.999Z,100016.04
2023-04-14T15:24:17.859Z,100017.96
2023-04-14T15:26:48.155Z,100018.37
2023-04-14T15:29:19.499Z,100020.13
2023-04-14T15:31:48.237Z,100021.37
2023-04-14T15:34:16.807Z,100024.99
2023-04-14T15:36:44.714Z,100026.73
2023-04-14T15:39:14.014Z,100032.40
2023-04-14T15:41:44.702Z,100031.92
2023-04-14T15:44:12.946Z,100038.23
2023-04-14T15:46:40.798Z,100038.81
2023-04-14T15:49:11.426Z,100041.09
2023-04-14T15:51:41.124Z,100041.41
2023-04-14T15:54:08.990Z,100041.62
2023-04-14T15:56:37.175Z,100048.42
2023-04-14T15:59:05.223Z,100049.48
2023-04-14T16:01:33.372Z,100053.68
2023-04-14T16:04:02.190Z,100059.94
2023-04-14T16:06:34.066Z,100061.02
2023-04-14T16:09:05.000Z,100065.73
2023-04-14T16:11:33.743Z,100069.37
2023-04-14T16:14:03.338Z,100074.70
2023-04-14T16:16:32.684Z,100078.44
2023-04-14T16:19:00.817Z,100080.09
2023-04-14T16:21:29.184Z,100082.91
2023-04-14T16:23:57.637Z,100081.41
2023-04-14T16:26:25.689Z,100083.40
2023-04-14T16:29:02.819Z,100083.50
2023-04-14T16:31:31.574Z,100082.60
2023-04-14T16:34:00.107Z,100079.93
2023-04-14T16:36:29.118Z,100087.15
2023-04-14T16:38:58.748Z,100089.67
2023-04-14T16:41:29.069Z,100093.02
2023-04-14T16:43:57.178Z,100093.14
2023-04-14T16:46:26.256Z,100096.27
2023-04-14T16:48:56.107Z,100095.15
2023-04-14T16:51:26.888Z,100103.54
2023-04-14T16:53:55.925Z,100109.05
2023-04-14T16:56:24.138Z,100114.34
2023-04-14T16:58:52.116Z,100115.65
2023-04-14T17:01:20.922Z,100120.64
2023-04-14T17:03:49.563Z,100113.96
2023-04-14T17:06:17.831Z,100117.46
2023-04-14T17:08:47.094Z,100128.52
2023-04-14T17:11:15.373Z,100126.94
2023-04-14T17:13:43.200Z,100129.07
2023-04-14T17:16:11.858Z,100135.08
2023-04-14T17:18:41.576Z,100137.91
2023-04-14T17:21:09.461Z,100139.85
2023-04-14T17:23:39.582Z,100143.31
2023-04-14T17:26:07.925Z,100146.31
2023-04-14T17:28:35.983Z,100148.98
2023-04-14T17:31:05.076Z,100154.52
2023-04-14T17:33:35.367Z,100160.04
2023-04-14T17:36:03.525Z,100163.11
2023-04-14T17:38:35.127Z,100162.10
2023-04-14T17:41:03.462Z,100166.93
2023-04-14T17:43:31.642Z,100167.13
2023-04-14T17:46:00.214Z,100171.27
2023-04-14T17:48:28.540Z,100164.63
2023-04-14T17:50:56.530Z,100165.23
2023-04-14T17:53:25.149Z,100166.52
2023-04-14T17:55:53.767Z,100174.13
2023-04-14T17:58:22.297Z,100170.06
2023-04-14T18:00:51.681Z,100174.14
2023-04-14T18:03:21.844Z,100175.73
2023-04-14T18:05:50.617Z,100177.83
2023-04-14T18:08:18.641Z,100181.25
2023-04-14T18:10:46.754Z,100186.77
2023-04-14T18:13:14.711Z,100184.53
2023-04-14T18:15:42.637Z,100183.27
2023-04-14T18:18:13.382Z,100182.55
2023-04-14T18:20:45.377Z,100183.73
2023-04-14T18:23:13.814Z,100185.98
2023-04-14T18:28:18.863Z,100185.04
2023-04-14T18:30:53.781Z,100180.64
2023-04-14T18:33:22.723Z,100182.34
2023-04-14T18:35:51.957Z,100176.92
2023-04-14T18:38:20.283Z,100176.13
2023-04-14T18:40:51.075Z,100177.84
2023-04-14T18:43:19.241Z,100175.41
2023-04-14T18:45:47.943Z,100175.98
2023-04-14T18:48:18.079Z,100173.88
2023-04-14T18:50:46.721Z,100171.41
2023-04-14T18:53:14.903Z,100170.73
2023-04-14T18:55:46.985Z,100164.27
2023-04-14T18:58:16.161Z,100169.67
2023-04-14T19:00:46.807Z,100167.27
2023-04-14T19:03:17.120Z,100168.05
2023-04-14T19:05:46.768Z,100171.84
2023-04-14T19:08:15.081Z,100175.84
2023-04-14T19:10:47.897Z,100176.92
2023-04-14T19:13:17.084Z,100174.77
2023-04-14T19:15:45.471Z,100171.79
2023-04-14T19:18:13.510Z,100169.27
2023-04-14T19:20:43.441Z,100170.73
2023-04-14T19:23:12.024Z,100174.09
2023-04-14T19:25:41.649Z,100174.40
2023-04-14T19:28:16.908Z,100173.52
2023-04-14T19:30:45.971Z,100179.20
2023-04-14T19:33:14.127Z,100179.42
2023-04-14T19:35:44.794Z,100179.45
2023-04-14T19:38:13.050Z,100178.55
2023-04-14T19:40:50.766Z,100176.85
2023-04-14T19:43:20.148Z,100175.14
2023-04-14T19:45:52.206Z,100172.64
2023-04-14T19:48:23.740Z,100172.13
2023-04-14T19:50:54.540Z,100165.84
2023-04-14T19:53:23.003Z,100166.57
2023-04-14T19:55:53.630Z,100170.16
2023-04-14T19:58:21.998Z,100165.60
2023-04-14T20:00:56.099Z,100165.02
2023-04-14T20:03:25.866Z,100171.52
2023-04-14T20:05:57.277Z,100175.09
2023-04-14T20:08:26.453Z,100171.70
2023-04-14T20:10:55.561Z,100176.88
2023-04-14T20:13:24.467Z,100173.61
2023-04-14T20:15:58.880Z,100175.40
2023-04-14T20:18:28.732Z,100181.96
2023-04-14T20:20:57.332Z,100185.23
2023-04-14T20:23:25.683Z,100187.68
2023-04-14T20:25:54.218Z,100187.42
2023-04-14T20:28:26.443Z,100196.20
2023-04-14T20:30:56.161Z,100198.53
2023-04-14T20:33:31.110Z,100202.38
2023-04-14T20:36:01.871Z,100202.66
2023-04-14T20:38:30.039Z,100208.49
2023-04-14T20:41:01.298Z,100214.61
2023-04-14T20:43:34.351Z,100219.33
2023-04-14T20:46:03.920Z,100220.70
2023-04-14T20:48:35.329Z,100229.48
2023-04-14T20:51:04.422Z,100229.40
2023-04-14T20:53:32.518Z,100235.61
2023-04-14T20:56:01.438Z,100241.55
2023-04-14T20:58:29.802Z,100245.32
2023-04-14T21:00:58.143Z,100249.02
2023-04-14T21:03:28.644Z,100247.88
2023-04-14T21:05:57.659Z,100249.59
2023-04-14T21:08:27.351Z,100248.40
2023-04-14T21:11:15.566Z,100254.69
2023-04-14T21:15:26.470Z,100258.22
2023-04-14T21:16:32.890Z,100266.10
2023-04-14T21:19:04.262Z,100269.94
2023-04-14T21:21:33.190Z,100278.14
2023-04-14T21:24:02.396Z,100283.95
2023-04-14T21:26:31.141Z,100285.05
2023-04-14T21:29:05.160Z,100293.73
2023-04-14T21:31:34.229Z,100299.66
2023-04-14T21:34:02.445Z,100304.42
2023-04-14T21:36:30.384Z,100312.29
2023-04-14T21:38:58.418Z,100315.13
2023-04-14T21:41:26.422Z,100323.59
2023-04-14T21:43:54.370Z,100329.13
2023-04-14T21:46:22.366Z,100332.16
2023-04-14T21:48:51.781Z,100336.53
2023-04-14T21:51:19.787Z,100336.92
2023-04-14T21:53:50.893Z,100346.09
2023-04-14T21:56:19.274Z,100340.42
2023-04-14T21:58:47.260Z,100342.97
2023-04-14T22:01:15.975Z,100339.06
2023-04-14T22:03:45.043Z,100344.23
2023-04-14T22:06:13.606Z,100347.35
2023-04-14T22:08:42.500Z,100348.48
2023-04-14T22:11:10.959Z,100352.26
2023-04-14T22:13:39.117Z,100349.02
2023-04-14T22:16:11.335Z,100352.14
2023-04-14T22:18:39.858Z,100355.63
2023-04-14T22:21:13.194Z,100350.52
2023-04-14T22:23:43.591Z,100352.69
2023-04-14T22:26:13.563Z,100358.58
2023-04-14T22:28:42.550Z,100361.50
2023-04-14T22:31:10.702Z,100360.68
2023-04-14T22:33:42.004Z,100365.31
2023-04-14T22:36:10.569Z,100362.87
2023-04-14T22:38:38.857Z,100362.70
2023-04-14T22:41:06.815Z,100359.19
2023-04-14T22:43:34.767Z,100354.40
2023-04-14T22:46:02.738Z,100356.08
2023-04-14T22:48:31.034Z,100353.20
2023-04-14T22:50:59.212Z,100344.70
2023-04-14T22:53:28.177Z,100343.22
2023-04-14T22:55:58.121Z,100348.48
2023-04-14T22:58:26.190Z,100342.84
2023-04-14T23:00:54.740Z,100345.04
2023-04-14T23:03:23.369Z,100345.25
2023-04-14T23:05:52.026Z,100343.63
2023-04-14T23:08:22.149Z,100342.74
2023-04-14T23:10:51.064Z,100345.44
2023-04-14T23:13:18.898Z,100340.71
2023-04-14T23:15:48.422Z,100342.58
2023-04-14T23:18:20.897Z,100338.56
2023-04-14T23:22:24.760Z,100329.26
2023-04-14T23:25:02.385Z,100332.15
2023-04-14T23:27:31.487Z,100328.86
2023-04-14T23:29:59.591Z,100324.73
2023-04-14T23:32:27.817Z,100324.66
2023-04-14T23:35:00.838Z,100330.55
2023-04-14T23:37:29.371Z,100333.56
2023-04-14T23:39:57.581Z,100345.81
2023-04-14T23:42:25.618Z,100335.31
2023-04-14T23:44:54.475Z,100337.89
2023-04-14T23:47:22.367Z,100339.15
2023-04-14T23:49:55.418Z,100336.44
2023-04-14T23:52:23.740Z,100330.05
2023-04-14T23:54:52.139Z,100324.00
2023-04-14T23:57:22.522Z,100324.63
2023-04-14T23:59:50.784Z,100321.13
